createdAt,value
2022-10-20T00:00:25.294Z,13.45
2022-10-20T00:03:27.647Z,13.39
2022-10-20T00:06:31.864Z,13.41
2022-10-20T00:09:33.262Z,13.42
2022-10-20T00:12:35.295Z,13.40
2022-10-20T00:15:36.855Z,13.33
2022-10-20T00:18:39.124Z,13.31
2022-10-20T00:21:40.585Z,13.36
2022-10-20T00:24:42.757Z,13.31
2022-10-20T00:27:44.162Z,13.31
2022-10-20T00:30:45.566Z,13.22
2022-10-20T00:33:47.588Z,13.22
2022-10-20T00:36:51.323Z,13.18
2022-10-20T00:39:53.022Z,13.20
2022-10-20T00:42:54.401Z,13.17
2022-10-20T00:45:57.593Z,13.16
2022-10-20T00:49:09.251Z,13.13
2022-10-20T00:52:11.093Z,13.16
2022-10-20T00:55:17.512Z,13.10
2022-10-20T00:58:19.433Z,12.99
2022-10-20T01:01:20.990Z,13.04
2022-10-20T01:04:22.830Z,12.98
2022-10-20T01:07:24.254Z,12.96
2022-10-20T01:10:30.776Z,12.99
2022-10-20T01:14:03.020Z,12.94
2022-10-20T01:17:16.440Z,12.93
2022-10-20T01:20:44.658Z,12.92
2022-10-20T01:24:10.605Z,13.02
2022-10-20T01:27:27.169Z,12.88
2022-10-20T01:30:28.906Z,12.83
2022-10-20T01:34:02.792Z,12.74
2022-10-20T01:37:19.733Z,12.77
2022-10-20T01:40:49.453Z,12.72
2022-10-20T01:43:52.209Z,12.71
2022-10-20T01:46:54.826Z,12.69
2022-10-20T01:49:57.230Z,12.72
2022-10-20T01:52:59.636Z,12.71
2022-10-20T01:56:03.304Z,12.68
2022-10-20T01:59:26.466Z,12.67
2022-10-20T02:02:51.404Z,12.65
2022-10-20T02:06:09.996Z,12.67
2022-10-20T02:09:23.922Z,12.66
2022-10-20T02:12:30.560Z,12.58
2022-10-20T02:15:36.772Z,12.63
2022-10-20T02:18:42.407Z,12.64
2022-10-20T02:21:44.840Z,12.63
2022-10-20T02:24:46.776Z,12.67
2022-10-20T02:27:48.994Z,12.65
2022-10-20T02:30:51.154Z,12.69
2022-10-20T02:33:54.880Z,12.65
2022-10-20T02:36:58.525Z,12.66
2022-10-20T02:40:00.010Z,12.61
2022-10-20T02:43:01.396Z,12.59
2022-10-20T02:46:02.872Z,12.60
2022-10-20T02:49:04.384Z,12.61
2022-10-20T02:52:05.811Z,12.61
2022-10-20T02:55:07.701Z,12.59
2022-10-20T02:58:09.955Z,12.60
2022-10-20T03:01:11.363Z,12.61
2022-10-20T03:04:13.843Z,12.54
2022-10-20T03:07:15.486Z,12.57
2022-10-20T03:10:17.078Z,12.56
2022-10-20T03:13:18.566Z,12.47
2022-10-20T03:16:20.296Z,12.43
2022-10-20T03:19:21.665Z,12.50
2022-10-20T03:22:23.112Z,12.54
2022-10-20T03:25:24.566Z,12.51
2022-10-20T03:28:26.593Z,12.48
2022-10-20T03:31:28.063Z,12.49
2022-10-20T03:34:29.475Z,12.42
2022-10-20T03:37:30.858Z,12.43
2022-10-20T03:40:32.266Z,12.48
2022-10-20T03:43:33.636Z,12.51
2022-10-20T03:46:35.025Z,12.53
2022-10-20T03:49:36.420Z,12.45
2022-10-20T03:52:38.098Z,12.49
2022-10-20T03:55:39.663Z,12.44
2022-10-20T03:58:41.257Z,12.42
2022-10-20T04:01:45.330Z,12.38
2022-10-20T04:04:46.795Z,12.39
2022-10-20T04:07:48.295Z,12.42
2022-10-20T04:10:49.693Z,12.40
2022-10-20T04:13:51.577Z,12.40
2022-10-20T04:16:52.962Z,12.40
2022-10-20T04:19:54.502Z,12.38
2022-10-20T04:22:55.906Z,12.40
2022-10-20T04:25:57.278Z,12.43
2022-10-20T04:28:58.719Z,12.42
2022-10-20T04:32:00.158Z,12.44
2022-10-20T04:35:01.585Z,12.38
2022-10-20T04:38:02.975Z,12.36
2022-10-20T04:41:04.888Z,12.33
2022-10-20T04:44:06.272Z,12.32
2022-10-20T04:47:07.660Z,12.28
2022-10-20T04:50:09.797Z,12.24
2022-10-20T04:53:11.231Z,12.27
2022-10-20T04:56:18.403Z,12.20
2022-10-20T04:59:19.815Z,12.13
2022-10-20T05:02:21.184Z,12.11
2022-10-20T05:05:22.562Z,12.15
2022-10-20T05:08:23.952Z,12.13
2022-10-20T05:11:27.687Z,12.06
2022-10-20T05:14:29.144Z,12.14
2022-10-20T05:17:30.658Z,12.13
2022-10-20T05:20:41.029Z,12.19
2022-10-20T05:23:47.690Z,12.22
2022-10-20T05:26:49.204Z,12.18
2022-10-20T05:29:50.583Z,12.17
2022-10-20T05:32:51.960Z,12.14
2022-10-20T05:35:53.346Z,12.12
2022-10-20T05:38:55.882Z,12.17
2022-10-20T05:41:57.321Z,12.14
2022-10-20T05:44:58.828Z,12.16
2022-10-20T05:48:00.333Z,12.18
2022-10-20T05:51:15.224Z,12.16
2022-10-20T05:54:18.049Z,12.16
2022-10-20T05:57:19.428Z,12.15
2022-10-20T06:00:29.875Z,12.16
2022-10-20T06:03:31.399Z,12.14
2022-10-20T06:06:32.773Z,12.15
2022-10-20T06:09:34.161Z,12.14
2022-10-20T06:12:35.780Z,12.10
2022-10-20T06:15:37.288Z,12.14
2022-10-20T06:18:39.349Z,12.14
2022-10-20T06:24:47.126Z,12.14
2022-10-20T06:27:48.565Z,12.26
2022-10-20T06:30:49.971Z,12.29
2022-10-20T06:33:51.909Z,12.30
2022-10-20T06:36:53.619Z,12.24
2022-10-20T06:39:55.022Z,12.28
2022-10-20T06:46:05.662Z,12.29
2022-10-20T06:49:08.124Z,12.35
2022-10-20T06:55:17.613Z,12.47
2022-10-20T06:58:18.998Z,12.51
2022-10-20T07:01:26.090Z,12.59
2022-10-20T07:04:27.604Z,12.65
2022-10-20T07:07:29.060Z,12.73
2022-10-20T07:10:30.486Z,12.82
2022-10-20T07:13:33.171Z,12.88
2022-10-20T07:16:35.070Z,12.93
2022-10-20T07:19:36.717Z,13.07
2022-10-20T07:22:38.647Z,13.02
2022-10-20T07:25:40.588Z,13.06
2022-10-20T07:28:44.888Z,13.21
2022-10-20T07:31:47.833Z,13.20
2022-10-20T07:34:49.314Z,13.26
2022-10-20T07:37:50.754Z,13.29
2022-10-20T07:40:52.445Z,13.34
2022-10-20T07:43:54.677Z,13.36
2022-10-20T07:46:56.207Z,13.41
2022-10-20T07:49:58.622Z,13.49
2022-10-20T07:53:00.098Z,13.63
2022-10-20T07:56:01.526Z,13.72
2022-10-20T07:59:04.237Z,13.80
2022-10-20T08:02:05.753Z,13.81
2022-10-20T08:05:08.235Z,13.82
2022-10-20T08:08:09.626Z,13.84
2022-10-20T08:11:12.049Z,13.92
2022-10-20T08:14:13.435Z,13.97
2022-10-20T08:17:14.831Z,14.15
2022-10-20T08:23:39.035Z,14.30
2022-10-20T08:26:40.411Z,14.41
2022-10-20T08:29:47.693Z,14.35
2022-10-20T08:32:56.813Z,14.40
2022-10-20T08:36:03.437Z,14.58
2022-10-20T08:39:06.290Z,14.64
2022-10-20T08:42:10.209Z,14.62
2022-10-20T08:45:16.248Z,14.70
2022-10-20T08:48:24.126Z,14.79
2022-10-20T08:51:32.488Z,14.99
2022-10-20T08:54:34.425Z,15.10
2022-10-20T08:57:36.586Z,15.17
2022-10-20T09:00:39.505Z,15.38
2022-10-20T09:03:42.126Z,15.40
2022-10-20T09:06:46.660Z,15.48
2022-10-20T09:09:48.251Z,15.63
2022-10-20T09:12:50.422Z,15.59
2022-10-20T09:15:57.443Z,15.50
2022-10-20T09:19:00.874Z,15.55
2022-10-20T09:22:06.860Z,15.49
2022-10-20T09:25:15.586Z,15.61
2022-10-20T09:28:34.230Z,15.73
2022-10-20T09:31:49.665Z,16.05
2022-10-20T09:34:51.057Z,16.23
2022-10-20T09:38:03.533Z,16.26
2022-10-20T09:41:10.789Z,16.40
2022-10-20T09:44:23.594Z,16.36
2022-10-20T09:47:27.277Z,16.31
2022-10-20T09:50:40.421Z,16.28
2022-10-20T09:54:03.237Z,16.33
2022-10-20T09:57:08.417Z,16.42
2022-10-20T10:00:36.203Z,16.52
2022-10-20T10:03:41.362Z,16.59
2022-10-20T10:06:46.091Z,16.58
2022-10-20T10:10:01.300Z,16.60
2022-10-20T10:16:10.827Z,16.64
2022-10-20T10:19:19.629Z,16.83
2022-10-20T10:22:21.366Z,16.82
2022-10-20T10:25:27.706Z,16.71
2022-10-20T10:28:31.172Z,16.63
2022-10-20T10:31:32.896Z,16.63
2022-10-20T10:34:49.560Z,16.67
2022-10-20T10:37:53.078Z,16.72
2022-10-20T10:41:21.834Z,16.72
2022-10-20T10:44:47.878Z,16.82
2022-10-20T10:48:15.778Z,16.88
2022-10-20T10:51:32.462Z,16.98
2022-10-20T10:55:03.134Z,16.93
2022-10-20T10:58:18.538Z,16.89
2022-10-20T11:01:40.174Z,16.89
2022-10-20T11:04:47.553Z,16.87
2022-10-20T11:08:17.180Z,16.91
2022-10-20T11:11:48.081Z,16.83
2022-10-20T11:15:12.534Z,16.73
2022-10-20T11:18:36.769Z,16.70
2022-10-20T11:21:50.406Z,16.64
2022-10-20T11:25:37.664Z,16.61
2022-10-20T11:28:45.403Z,16.47
2022-10-20T11:31:59.390Z,16.35
2022-10-20T11:35:33.636Z,16.30
2022-10-20T11:38:42.300Z,16.29
2022-10-20T11:41:51.202Z,16.25
2022-10-20T11:44:54.609Z,16.24
2022-10-20T11:48:12.642Z,16.18
2022-10-20T11:51:43.906Z,16.23
2022-10-20T11:55:09.819Z,16.24
2022-10-20T11:58:49.688Z,16.27
2022-10-20T12:02:22.129Z,16.27
2022-10-20T12:05:52.755Z,16.25
2022-10-20T12:09:17.031Z,16.25
2022-10-20T12:12:35.901Z,16.23
2022-10-20T12:15:46.625Z,16.24
2022-10-20T12:19:06.664Z,16.22
2022-10-20T12:22:14.165Z,16.21
2022-10-20T12:25:35.869Z,16.17
2022-10-20T12:28:41.703Z,16.27
2022-10-20T12:32:21.173Z,16.20
2022-10-20T12:35:22.506Z,16.19
2022-10-20T12:38:24.113Z,16.16
2022-10-20T12:41:29.022Z,16.16
2022-10-20T12:44:43.135Z,16.21
2022-10-20T12:48:00.582Z,16.24
2022-10-20T12:51:06.383Z,16.22
2022-10-20T12:54:34.720Z,16.23
2022-10-20T12:57:41.910Z,16.22
2022-10-20T13:00:46.138Z,16.26
2022-10-20T13:03:48.600Z,16.28
2022-10-20T13:06:50.026Z,16.28
2022-10-20T13:09:55.791Z,16.28
2022-10-20T13:13:01.417Z,16.25
2022-10-20T13:16:03.410Z,16.27
2022-10-20T13:19:08.962Z,16.27
2022-10-20T13:22:32.977Z,16.28
2022-10-20T13:25:39.980Z,16.33
2022-10-20T13:28:47.758Z,16.27
2022-10-20T13:32:21.748Z,16.25
2022-10-20T13:35:59.217Z,16.29
2022-10-20T13:39:14.051Z,16.30
2022-10-20T13:42:59.423Z,16.26
2022-10-20T13:46:19.615Z,16.20
2022-10-20T13:49:33.249Z,16.19
2022-10-20T13:52:40.493Z,16.20
2022-10-20T13:56:04.877Z,16.24
2022-10-20T13:59:17.492Z,16.25
2022-10-20T14:02:30.122Z,16.29
2022-10-20T14:05:39.267Z,16.26
2022-10-20T14:08:44.133Z,16.21
2022-10-20T14:12:01.080Z,16.17
2022-10-20T14:15:06.153Z,16.20
2022-10-20T14:18:28.254Z,16.26
2022-10-20T14:21:29.849Z,16.35
2022-10-20T14:24:34.338Z,16.37
2022-10-20T14:27:36.585Z,16.40
2022-10-20T14:30:41.174Z,16.42
2022-10-20T14:33:47.642Z,16.42
2022-10-20T14:36:50.648Z,16.39
2022-10-20T14:39:52.224Z,16.40
2022-10-20T14:42:59.280Z,16.38
2022-10-20T14:46:03.245Z,16.32
2022-10-20T14:49:16.725Z,16.38
2022-10-20T14:52:21.268Z,16.36
2022-10-20T14:55:37.042Z,16.29
2022-10-20T14:58:56.557Z,16.32
2022-10-20T15:02:02.455Z,16.31
2022-10-20T15:05:30.750Z,16.35
2022-10-20T15:08:32.251Z,16.35
2022-10-20T15:11:33.828Z,16.38
2022-10-20T15:14:35.394Z,16.37
2022-10-20T15:17:48.542Z,16.33
2022-10-20T15:20:52.168Z,16.33
2022-10-20T15:23:53.640Z,16.27
2022-10-20T15:26:56.844Z,16.25
2022-10-20T15:29:58.235Z,16.23
2022-10-20T15:32:59.629Z,16.25
2022-10-20T15:36:01.737Z,16.25
2022-10-20T15:39:05.008Z,16.23
2022-10-20T15:42:11.086Z,16.27
2022-10-20T15:45:18.276Z,16.22
2022-10-20T15:48:19.984Z,16.25
2022-10-20T15:51:30.121Z,16.31
2022-10-20T15:54:31.548Z,16.33
2022-10-20T15:57:33.017Z,16.32
2022-10-20T16:00:34.669Z,16.29
2022-10-20T16:03:40.567Z,16.25
2022-10-20T16:06:43.537Z,16.23
2022-10-20T16:09:44.954Z,16.22
2022-10-20T16:12:46.398Z,16.25
2022-10-20T16:15:47.810Z,16.22
2022-10-20T16:18:49.282Z,16.18
2022-10-20T16:21:50.672Z,16.12
2022-10-20T16:24:52.501Z,16.13
2022-10-20T16:27:53.907Z,16.06
2022-10-20T16:31:02.491Z,16.02
2022-10-20T16:34:03.895Z,15.96
2022-10-20T16:37:05.348Z,15.89
2022-10-20T16:40:07.153Z,15.84
2022-10-20T16:43:08.531Z,15.79
2022-10-20T16:46:11.881Z,15.83
2022-10-20T16:49:13.463Z,15.78
2022-10-20T16:52:14.865Z,15.77
2022-10-20T16:55:16.358Z,15.71
2022-10-20T16:58:17.740Z,15.64
2022-10-20T17:01:21.338Z,15.58
2022-10-20T17:04:23.857Z,15.59
2022-10-20T17:07:25.258Z,15.56
2022-10-20T17:10:26.690Z,15.52
2022-10-20T17:13:29.337Z,15.50
2022-10-20T17:16:33.502Z,15.44
2022-10-20T17:19:35.274Z,15.47
2022-10-20T17:22:36.920Z,15.44
2022-10-20T17:25:39.052Z,15.43
2022-10-20T17:28:40.659Z,15.42
2022-10-20T17:31:42.150Z,15.39
2022-10-20T17:34:43.538Z,15.32
2022-10-20T17:37:44.916Z,15.34
2022-10-20T17:40:46.399Z,15.31
2022-10-20T17:43:47.986Z,15.26
2022-10-20T17:46:49.366Z,15.21
2022-10-20T17:49:50.746Z,15.14
2022-10-20T17:52:52.193Z,15.11
2022-10-20T17:55:53.750Z,15.07
2022-10-20T17:58:56.297Z,15.00
2022-10-20T18:01:57.785Z,14.98
2022-10-20T18:04:59.368Z,14.99
2022-10-20T18:08:00.908Z,14.93
2022-10-20T18:11:02.432Z,14.89
2022-10-20T18:14:04.247Z,14.92
2022-10-20T18:17:05.785Z,14.89
2022-10-20T18:20:07.530Z,14.89
2022-10-20T18:23:08.935Z,14.83
2022-10-20T18:26:13.511Z,14.88
2022-10-20T18:29:16.808Z,14.84
2022-10-20T18:32:18.240Z,14.83
2022-10-20T18:38:26.032Z,14.85
2022-10-20T18:41:30.146Z,14.86
2022-10-20T18:44:32.391Z,14.84
2022-10-20T18:47:33.850Z,14.77
2022-10-20T18:50:35.281Z,14.78
2022-10-20T18:53:38.103Z,14.74
2022-10-20T18:56:39.719Z,14.68
2022-10-20T18:59:41.154Z,14.70
2022-10-20T19:02:42.662Z,14.70
2022-10-20T19:05:44.073Z,14.69
2022-10-20T19:08:45.593Z,14.69
2022-10-20T19:14:54.933Z,14.67
2022-10-20T19:18:00.840Z,14.68
2022-10-20T19:21:06.055Z,14.69
2022-10-20T19:24:11.621Z,14.72
2022-10-20T19:27:28.285Z,14.73
2022-10-20T19:30:34.986Z,14.69
2022-10-20T19:33:36.374Z,14.65
2022-10-20T19:36:40.520Z,14.66
2022-10-20T19:39:42.685Z,14.65
2022-10-20T19:42:44.108Z,14.66
2022-10-20T19:45:49.065Z,14.63
2022-10-20T19:48:51.407Z,14.67
2022-10-20T19:51:53.343Z,14.67
2022-10-20T19:54:54.735Z,14.68
2022-10-20T19:57:56.199Z,14.72
2022-10-20T20:00:59.119Z,14.75
2022-10-20T20:04:00.768Z,14.75
2022-10-20T20:07:02.684Z,14.78
2022-10-20T20:10:04.541Z,14.78
2022-10-20T20:13:06.039Z,14.82
2022-10-20T20:16:08.341Z,14.81
2022-10-20T20:19:09.942Z,14.84
2022-10-20T20:22:11.456Z,14.83
2022-10-20T20:25:12.870Z,14.84
2022-10-20T20:28:14.382Z,14.87
2022-10-20T20:31:15.847Z,14.91
2022-10-20T20:34:17.262Z,14.93
2022-10-20T20:37:18.728Z,14.94
2022-10-20T20:40:20.530Z,14.96
2022-10-20T20:43:21.958Z,14.99
2022-10-20T20:46:24.797Z,14.98
2022-10-20T20:49:26.236Z,15.01
2022-10-20T20:52:29.311Z,14.96
2022-10-20T20:55:30.686Z,15.00
2022-10-20T20:58:33.056Z,15.05
2022-10-20T21:01:34.535Z,15.00
2022-10-20T21:04:36.330Z,14.96
2022-10-20T21:07:38.044Z,14.94
2022-10-20T21:10:39.721Z,14.93
2022-10-20T21:13:42.470Z,14.96
2022-10-20T21:16:44.446Z,14.93
2022-10-20T21:19:45.960Z,14.95
2022-10-20T21:22:47.439Z,14.94
2022-10-20T21:25:49.511Z,14.96
2022-10-20T21:28:51.343Z,14.95
2022-10-20T21:31:53.121Z,14.97
2022-10-20T21:34:55.169Z,14.97
2022-10-20T21:37:57.353Z,15.00
2022-10-20T21:41:06.944Z,14.99
2022-10-20T21:44:09.219Z,15.02
2022-10-20T21:47:10.756Z,15.00
2022-10-20T21:50:12.188Z,15.04
2022-10-20T21:53:13.571Z,15.08
2022-10-20T21:56:15.589Z,15.06
2022-10-20T21:59:19.815Z,15.08
2022-10-20T22:02:21.190Z,15.06
2022-10-20T22:05:22.636Z,15.06
2022-10-20T22:08:24.017Z,15.07
2022-10-20T22:11:31.922Z,15.08
2022-10-20T22:14:33.440Z,15.06
2022-10-20T22:17:35.047Z,15.08
2022-10-20T22:20:37.360Z,15.07
2022-10-20T22:23:38.760Z,15.06
2022-10-20T22:26:41.562Z,15.04
2022-10-20T22:29:42.946Z,15.06
2022-10-20T22:32:44.342Z,15.09
2022-10-20T22:35:45.735Z,15.04
2022-10-20T22:38:47.192Z,15.06
2022-10-20T22:41:48.570Z,15.04
2022-10-20T22:44:49.994Z,15.09
2022-10-20T22:47:51.421Z,15.10
2022-10-20T22:50:53.028Z,15.14
2022-10-20T22:53:54.443Z,15.16
2022-10-20T22:56:55.885Z,15.19
2022-10-20T22:59:57.366Z,15.25
2022-10-20T23:02:58.798Z,15.22
2022-10-20T23:06:00.212Z,15.18
2022-10-20T23:09:01.638Z,15.22
2022-10-20T23:12:03.293Z,15.22
2022-10-20T23:15:06.340Z,15.17
2022-10-20T23:18:07.734Z,15.16
2022-10-20T23:21:09.454Z,15.12
2022-10-20T23:24:10.846Z,15.14
2022-10-20T23:27:12.236Z,15.13
2022-10-20T23:30:13.618Z,15.11
2022-10-20T23:33:15.080Z,15.10
2022-10-20T23:36:16.837Z,15.10
2022-10-20T23:39:18.270Z,15.06
2022-10-20T23:42:19.642Z,15.09
2022-10-20T23:45:21.190Z,15.10
2022-10-20T23:48:22.589Z,15.11
2022-10-20T23:51:24.059Z,15.08
2022-10-20T23:54:25.440Z,15.02
2022-10-20T23:57:26.819Z,15.00
